sensor_id;sensor_type;location;lat;lon;timestamp;pressure;altitude;pressure_sealevel;temperature;humidity
6150;BME280;3106;42.670;23.318;2024-01-25T00:01:23;94983.25;;;3.39;96.32
6150;BME280;3106;42.670;23.318;2024-01-25T00:03:52;94972.25;;;3.32;95.64
6150;BME280;3106;42.670;23.318;2024-01-25T00:06:21;94975.41;;;3.53;95.52
6150;BME280;3106;42.670;23.318;2024-01-25T00:08:51;94946.50;;;3.43;95.67
6150;BME280;3106;42.670;23.318;2024-01-25T00:11:21;94962.00;;;3.68;95.05
6150;BME280;3106;42.670;23.318;2024-01-25T00:13:48;94927.00;;;3.57;95.40
6150;BME280;3106;42.670;23.318;2024-01-25T00:16:17;94899.84;;;3.52;94.78
6150;BME280;3106;42.670;23.318;2024-01-25T00:18:45;94911.53;;;3.83;93.72
6150;BME280;3106;42.670;23.318;2024-01-25T00:21:15;94820.81;;;3.37;93.76
6150;BME280;3106;42.670;23.318;2024-01-25T00:23:45;94872.25;;;3.76;94.28
6150;BME280;3106;42.670;23.318;2024-01-25T00:26:13;94811.63;;;3.48;94.04
6150;BME280;3106;42.670;23.318;2024-01-25T00:28:43;94859.66;;;3.87;92.42
6150;BME280;3106;42.670;23.318;2024-01-25T00:31:11;94860.53;;;3.96;92.04
6150;BME280;3106;42.670;23.318;2024-01-25T00:33:39;94875.94;;;3.94;91.28
6150;BME280;3106;42.670;23.318;2024-01-25T00:36:12;94860.84;;;3.94;92.15
6150;BME280;3106;42.670;23.318;2024-01-25T00:38:40;94878.69;;;4.02;90.95
6150;BME280;3106;42.670;23.318;2024-01-25T00:41:09;94854.94;;;3.84;90.70
6150;BME280;3106;42.670;23.318;2024-01-25T00:43:37;94881.72;;;3.96;91.11
6150;BME280;3106;42.670;23.318;2024-01-25T00:46:08;94845.81;;;3.76;90.49
6150;BME280;3106;42.670;23.318;2024-01-25T00:48:38;94866.72;;;3.91;91.36
6150;BME280;3106;42.670;23.318;2024-01-25T00:51:07;94858.56;;;3.88;92.58
6150;BME280;3106;42.670;23.318;2024-01-25T00:53:35;94843.00;;;3.86;92.08
6150;BME280;3106;42.670;23.318;2024-01-25T00:56:05;94844.22;;;3.75;92.72
6150;BME280;3106;42.670;23.318;2024-01-25T00:58:33;94859.59;;;3.73;93.23
6150;BME280;3106;42.670;23.318;2024-01-25T01:01:02;94871.75;;;3.74;93.76
6150;BME280;3106;42.670;23.318;2024-01-25T01:03:40;94873.69;;;3.69;94.18
6150;BME280;3106;42.670;23.318;2024-01-25T01:06:09;94881.56;;;3.74;92.60
6150;BME280;3106;42.670;23.318;2024-01-25T01:08:49;94893.78;;;3.70;91.91
6150;BME280;3106;42.670;23.318;2024-01-25T01:11:18;94888.00;;;3.68;91.29
6150;BME280;3106;42.670;23.318;2024-01-25T01:13:46;94877.59;;;3.71;91.33
6150;BME280;3106;42.670;23.318;2024-01-25T01:16:13;94867.84;;;3.72;90.18
6150;BME280;3106;42.670;23.318;2024-01-25T01:18:45;94857.44;;;3.75;90.48
6150;BME280;3106;42.670;23.318;2024-01-25T01:21:15;94850.31;;;3.76;89.77
6150;BME280;3106;42.670;23.318;2024-01-25T01:23:43;94829.56;;;3.83;90.06
6150;BME280;3106;42.670;23.318;2024-01-25T01:26:14;94811.97;;;3.92;90.52
6150;BME280;3106;42.670;23.318;2024-01-25T01:28:51;94806.88;;;3.95;91.08
6150;BME280;3106;42.670;23.318;2024-01-25T01:31:23;94801.72;;;4.04;91.57
6150;BME280;3106;42.670;23.318;2024-01-25T01:33:53;94774.84;;;3.83;91.43
6150;BME280;3106;42.670;23.318;2024-01-25T01:36:22;94812.09;;;4.00;91.28
6150;BME280;3106;42.670;23.318;2024-01-25T01:38:51;94726.09;;;3.44;91.76
6150;BME280;3106;42.670;23.318;2024-01-25T01:41:20;94778.06;;;3.94;91.58
6150;BME280;3106;42.670;23.318;2024-01-25T01:43:52;94802.59;;;4.13;90.67
6150;BME280;3106;42.670;23.318;2024-01-25T01:46:31;94747.47;;;3.74;90.16
6150;BME280;3106;42.670;23.318;2024-01-25T01:49:04;94786.16;;;4.29;89.27
6150;BME280;3106;42.670;23.318;2024-01-25T01:51:33;94778.72;;;4.44;88.96
6150;BME280;3106;42.670;23.318;2024-01-25T01:54:08;94789.09;;;4.68;88.65
6150;BME280;3106;42.670;23.318;2024-01-25T01:56:36;94774.06;;;4.77;88.14
6150;BME280;3106;42.670;23.318;2024-01-25T01:59:10;94781.97;;;4.90;87.60
6150;BME280;3106;42.670;23.318;2024-01-25T02:01:38;94782.06;;;4.99;87.12
6150;BME280;3106;42.670;23.318;2024-01-25T02:04:08;94788.34;;;5.25;87.07
6150;BME280;3106;42.670;23.318;2024-01-25T02:06:39;94769.13;;;5.33;85.90
6150;BME280;3106;42.670;23.318;2024-01-25T02:09:07;94777.31;;;5.45;85.73
6150;BME280;3106;42.670;23.318;2024-01-25T02:11:35;94733.25;;;5.35;84.49
6150;BME280;3106;42.670;23.318;2024-01-25T02:14:07;94749.69;;;5.68;84.72
6150;BME280;3106;42.670;23.318;2024-01-25T02:16:41;94758.19;;;6.00;83.42
6150;BME280;3106;42.670;23.318;2024-01-25T02:19:13;94768.91;;;6.25;84.00
6150;BME280;3106;42.670;23.318;2024-01-25T02:21:43;94779.47;;;6.47;83.23
6150;BME280;3106;42.670;23.318;2024-01-25T02:24:22;94771.97;;;6.49;82.26
6150;BME280;3106;42.670;23.318;2024-01-25T02:26:51;94786.84;;;6.67;81.60
6150;BME280;3106;42.670;23.318;2024-01-25T02:29:22;94708.66;;;6.26;82.44
6150;BME280;3106;42.670;23.318;2024-01-25T02:31:57;94739.78;;;6.42;82.22
6150;BME280;3106;42.670;23.318;2024-01-25T02:34:26;94760.47;;;6.23;81.85
6150;BME280;3106;42.670;23.318;2024-01-25T02:36:53;94746.00;;;5.99;82.76
6150;BME280;3106;42.670;23.318;2024-01-25T02:39:24;94744.81;;;5.83;83.70
6150;BME280;3106;42.670;23.318;2024-01-25T02:41:59;94771.16;;;5.80;85.18
6150;BME280;3106;42.670;23.318;2024-01-25T02:44:40;94767.00;;;5.65;85.86
6150;BME280;3106;42.670;23.318;2024-01-25T02:47:11;94765.13;;;5.44;86.39
6150;BME280;3106;42.670;23.318;2024-01-25T02:49:46;94755.41;;;5.39;87.91
6150;BME280;3106;42.670;23.318;2024-01-25T02:52:14;94751.28;;;5.47;88.27
6150;BME280;3106;42.670;23.318;2024-01-25T02:54:47;94734.38;;;5.65;88.32
6150;BME280;3106;42.670;23.318;2024-01-25T02:57:17;94746.75;;;5.91;87.13
6150;BME280;3106;42.670;23.318;2024-01-25T02:59:48;94762.44;;;6.09;86.36
6150;BME280;3106;42.670;23.318;2024-01-25T03:02:16;94759.09;;;6.26;86.51
6150;BME280;3106;42.670;23.318;2024-01-25T03:04:45;94740.50;;;6.26;85.97
6150;BME280;3106;42.670;23.318;2024-01-25T03:07:17;94748.09;;;6.58;86.74
6150;BME280;3106;42.670;23.318;2024-01-25T03:10:14;94749.53;;;6.72;87.67
6150;BME280;3106;42.670;23.318;2024-01-25T03:12:42;94758.00;;;6.83;87.13
6150;BME280;3106;42.670;23.318;2024-01-25T03:15:12;94757.22;;;6.99;87.14
6150;BME280;3106;42.670;23.318;2024-01-25T03:17:42;94740.38;;;7.12;86.83
6150;BME280;3106;42.670;23.318;2024-01-25T03:20:24;94656.25;;;6.74;86.00
6150;BME280;3106;42.670;23.318;2024-01-25T03:22:53;94701.75;;;7.23;85.38
6150;BME280;3106;42.670;23.318;2024-01-25T03:25:24;94717.84;;;7.43;86.07
6150;BME280;3106;42.670;23.318;2024-01-25T03:27:55;94735.19;;;7.58;86.17
6150;BME280;3106;42.670;23.318;2024-01-25T03:30:23;94668.28;;;7.22;86.05
6150;BME280;3106;42.670;23.318;2024-01-25T03:32:51;94727.50;;;7.56;86.65
6150;BME280;3106;42.670;23.318;2024-01-25T03:35:25;94741.91;;;7.72;86.22
6150;BME280;3106;42.670;23.318;2024-01-25T03:37:53;94750.66;;;7.73;86.49
6150;BME280;3106;42.670;23.318;2024-01-25T03:40:30;94723.75;;;7.66;86.21
6150;BME280;3106;42.670;23.318;2024-01-25T03:42:58;94690.44;;;7.60;85.00
6150;BME280;3106;42.670;23.318;2024-01-25T03:45:26;94704.03;;;7.67;84.10
6150;BME280;3106;42.670;23.318;2024-01-25T03:48:07;94698.06;;;7.61;83.69
6150;BME280;3106;42.670;23.318;2024-01-25T03:50:38;94692.63;;;7.49;83.56
6150;BME280;3106;42.670;23.318;2024-01-25T03:53:14;94641.97;;;7.21;83.39
6150;BME280;3106;42.670;23.318;2024-01-25T03:59:06;94692.28;;;7.59;82.95
6150;BME280;3106;42.670;23.318;2024-01-25T04:02:09;94696.06;;;7.58;83.36
6150;BME280;3106;42.670;23.318;2024-01-25T04:04:38;94644.94;;;7.36;82.52
6150;BME280;3106;42.670;23.318;2024-01-25T04:07:07;94687.91;;;7.63;82.36
6150;BME280;3106;42.670;23.318;2024-01-25T04:09:35;94678.84;;;7.56;82.54
6150;BME280;3106;42.670;23.318;2024-01-25T04:12:04;94638.97;;;7.39;81.96
6150;BME280;3106;42.670;23.318;2024-01-25T04:14:33;94664.47;;;7.57;81.87
6150;BME280;3106;42.670;23.318;2024-01-25T04:17:04;94685.56;;;7.70;82.23
6150;BME280;3106;42.670;23.318;2024-01-25T04:19:32;94686.03;;;7.64;82.03
6150;BME280;3106;42.670;23.318;2024-01-25T04:22:05;94666.78;;;7.58;82.16
6150;BME280;3106;42.670;23.318;2024-01-25T04:24:32;94670.25;;;7.59;82.54
6150;BME280;3106;42.670;23.318;2024-01-25T04:27:01;94684.13;;;7.73;81.59
6150;BME280;3106;42.670;23.318;2024-01-25T04:29:29;94680.81;;;7.76;80.32
6150;BME280;3106;42.670;23.318;2024-01-25T04:31:59;94639.13;;;7.43;80.22
6150;BME280;3106;42.670;23.318;2024-01-25T04:34:39;94688.19;;;7.79;80.73
6150;BME280;3106;42.670;23.318;2024-01-25T04:37:11;94665.44;;;7.27;79.58
6150;BME280;3106;42.670;23.318;2024-01-25T04:39:38;94688.91;;;6.91;81.76
6150;BME280;3106;42.670;23.318;2024-01-25T04:42:05;94692.63;;;6.73;82.19
6150;BME280;3106;42.670;23.318;2024-01-25T04:44:34;94591.13;;;5.87;83.80
6150;BME280;3106;42.670;23.318;2024-01-25T04:47:08;94697.69;;;6.27;84.46
6150;BME280;3106;42.670;23.318;2024-01-25T04:49:38;94704.09;;;6.26;84.42
6150;BME280;3106;42.670;23.318;2024-01-25T04:52:21;94724.25;;;6.27;84.66
6150;BME280;3106;42.670;23.318;2024-01-25T04:54:48;94710.78;;;6.15;85.31
6150;BME280;3106;42.670;23.318;2024-01-25T04:57:18;94726.09;;;6.18;85.10
6150;BME280;3106;42.670;23.318;2024-01-25T04:59:47;94720.13;;;6.04;85.20
6150;BME280;3106;42.670;23.318;2024-01-25T05:02:20;94727.66;;;6.19;85.68
6150;BME280;3106;42.670;23.318;2024-01-25T05:04:49;94711.84;;;6.06;84.60
6150;BME280;3106;42.670;23.318;2024-01-25T05:07:16;94691.31;;;5.90;85.04
6150;BME280;3106;42.670;23.318;2024-01-25T05:09:43;94752.22;;;6.25;83.93
6150;BME280;3106;42.670;23.318;2024-01-25T05:12:11;94747.66;;;6.25;84.22
6150;BME280;3106;42.670;23.318;2024-01-25T05:14:41;94751.75;;;6.31;83.18
6150;BME280;3106;42.670;23.318;2024-01-25T05:17:07;94758.97;;;6.39;81.63
6150;BME280;3106;42.670;23.318;2024-01-25T05:19:36;94779.19;;;6.57;81.53
6150;BME280;3106;42.670;23.318;2024-01-25T05:22:07;94787.81;;;6.63;80.37
6150;BME280;3106;42.670;23.318;2024-01-25T05:24:41;94797.97;;;6.69;79.95
6150;BME280;3106;42.670;23.318;2024-01-25T05:27:12;94754.19;;;6.58;78.94
6150;BME280;3106;42.670;23.318;2024-01-25T05:29:40;94785.22;;;6.88;78.77
6150;BME280;3106;42.670;23.318;2024-01-25T05:32:07;94793.81;;;6.94;78.65
6150;BME280;3106;42.670;23.318;2024-01-25T05:34:39;94793.22;;;6.97;78.45
6150;BME280;3106;42.670;23.318;2024-01-25T05:37:10;94779.44;;;6.95;77.37
6150;BME280;3106;42.670;23.318;2024-01-25T05:39:39;94798.03;;;7.03;78.63
6150;BME280;3106;42.670;23.318;2024-01-25T05:42:07;94778.50;;;6.99;76.90
6150;BME280;3106;42.670;23.318;2024-01-25T05:44:36;94794.97;;;7.18;77.17
6150;BME280;3106;42.670;23.318;2024-01-25T05:47:04;94798.56;;;7.22;75.72
6150;BME280;3106;42.670;23.318;2024-01-25T05:49:43;94744.41;;;6.84;75.81
6150;BME280;3106;42.670;23.318;2024-01-25T05:52:17;94778.66;;;7.03;76.38
6150;BME280;3106;42.670;23.318;2024-01-25T05:54:47;94801.53;;;7.12;77.04
6150;BME280;3106;42.670;23.318;2024-01-25T05:57:29;94784.75;;;6.95;76.93
6150;BME280;3106;42.670;23.318;2024-01-25T05:59:58;94750.00;;;6.74;77.07
6150;BME280;3106;42.670;23.318;2024-01-25T06:02:40;94804.50;;;7.19;76.91
6150;BME280;3106;42.670;23.318;2024-01-25T06:05:12;94809.19;;;7.22;77.46
6150;BME280;3106;42.670;23.318;2024-01-25T06:07:38;94756.75;;;6.89;77.00
6150;BME280;3106;42.670;23.318;2024-01-25T06:10:25;94788.97;;;7.04;76.32
6150;BME280;3106;42.670;23.318;2024-01-25T06:12:55;94805.88;;;7.08;77.84
6150;BME280;3106;42.670;23.318;2024-01-25T06:15:26;94818.25;;;7.13;78.06
6150;BME280;3106;42.670;23.318;2024-01-25T06:17:56;94807.72;;;6.99;76.91
6150;BME280;3106;42.670;23.318;2024-01-25T06:20:33;94781.44;;;6.81;77.50
6150;BME280;3106;42.670;23.318;2024-01-25T06:23:06;94825.56;;;6.99;78.12
6150;BME280;3106;42.670;23.318;2024-01-25T06:25:33;94826.50;;;7.03;77.70
6150;BME280;3106;42.670;23.318;2024-01-25T06:28:02;94835.13;;;7.17;77.81
6150;BME280;3106;42.670;23.318;2024-01-25T06:30:32;94819.00;;;7.05;77.45
6150;BME280;3106;42.670;23.318;2024-01-25T06:33:03;94826.38;;;7.16;77.09
6150;BME280;3106;42.670;23.318;2024-01-25T06:35:35;94811.19;;;7.08;77.43
6150;BME280;3106;42.670;23.318;2024-01-25T06:38:07;94851.25;;;7.29;77.09
6150;BME280;3106;42.670;23.318;2024-01-25T06:40:48;94782.06;;;6.78;78.43
6150;BME280;3106;42.670;23.318;2024-01-25T06:43:39;94835.00;;;7.30;78.27
6150;BME280;3106;42.670;23.318;2024-01-25T06:46:07;94825.94;;;7.31;77.27
6150;BME280;3106;42.670;23.318;2024-01-25T06:48:35;94839.22;;;7.31;77.70
6150;BME280;3106;42.670;23.318;2024-01-25T06:51:07;94821.34;;;7.06;78.45
6150;BME280;3106;42.670;23.318;2024-01-25T06:53:44;94815.84;;;6.94;78.76
6150;BME280;3106;42.670;23.318;2024-01-25T06:56:15;94820.88;;;7.04;78.29
6150;BME280;3106;42.670;23.318;2024-01-25T06:58:44;94803.97;;;6.92;78.19
6150;BME280;3106;42.670;23.318;2024-01-25T07:01:24;94849.06;;;7.14;78.71
6150;BME280;3106;42.670;23.318;2024-01-25T07:03:52;94833.88;;;7.23;78.66
6150;BME280;3106;42.670;23.318;2024-01-25T07:06:35;94814.31;;;7.10;77.77
6150;BME280;3106;42.670;23.318;2024-01-25T07:09:03;94824.66;;;7.20;78.09
6150;BME280;3106;42.670;23.318;2024-01-25T07:11:32;94809.97;;;7.14;77.97
6150;BME280;3106;42.670;23.318;2024-01-25T07:13:59;94808.25;;;7.27;77.95
6150;BME280;3106;42.670;23.318;2024-01-25T07:16:28;94706.19;;;6.55;76.72
6150;BME280;3106;42.670;23.318;2024-01-25T07:18:56;94792.47;;;7.39;76.55
6150;BME280;3106;42.670;23.318;2024-01-25T07:21:24;94759.75;;;7.21;76.24
6150;BME280;3106;42.670;23.318;2024-01-25T07:23:56;94785.13;;;7.36;75.71
6150;BME280;3106;42.670;23.318;2024-01-25T07:26:26;94789.34;;;7.37;75.93
6150;BME280;3106;42.670;23.318;2024-01-25T07:28:53;94822.03;;;7.45;75.63
6150;BME280;3106;42.670;23.318;2024-01-25T07:31:25;94821.88;;;7.42;76.12
6150;BME280;3106;42.670;23.318;2024-01-25T07:33:56;94798.84;;;7.21;76.18
6150;BME280;3106;42.670;23.318;2024-01-25T07:36:27;94805.91;;;7.25;75.64
6150;BME280;3106;42.670;23.318;2024-01-25T07:39:01;94802.94;;;7.35;75.48
6150;BME280;3106;42.670;23.318;2024-01-25T07:41:30;94816.41;;;7.39;76.33
6150;BME280;3106;42.670;23.318;2024-01-25T07:43:57;94821.41;;;7.40;75.61
6150;BME280;3106;42.670;23.318;2024-01-25T07:46:28;94832.50;;;7.42;76.00
6150;BME280;3106;42.670;23.318;2024-01-25T07:48:56;94826.09;;;7.26;76.18
6150;BME280;3106;42.670;23.318;2024-01-25T07:51:27;94833.63;;;7.33;75.75
6150;BME280;3106;42.670;23.318;2024-01-25T07:53:55;94808.53;;;7.08;75.11
6150;BME280;3106;42.670;23.318;2024-01-25T07:56:26;94818.56;;;7.11;75.36
6150;BME280;3106;42.670;23.318;2024-01-25T07:58:59;94849.69;;;7.28;76.40
6150;BME280;3106;42.670;23.318;2024-01-25T08:01:29;94855.03;;;7.36;75.00
6150;BME280;3106;42.670;23.318;2024-01-25T08:04:00;94771.00;;;6.93;75.58
6150;BME280;3106;42.670;23.318;2024-01-25T08:06:29;94844.44;;;7.53;74.44
6150;BME280;3106;42.670;23.318;2024-01-25T08:08:57;94848.97;;;7.61;73.80
6150;BME280;3106;42.670;23.318;2024-01-25T08:11:26;94840.19;;;7.60;73.64
6150;BME280;3106;42.670;23.318;2024-01-25T08:13:58;94836.59;;;7.65;72.77
6150;BME280;3106;42.670;23.318;2024-01-25T08:16:25;94831.13;;;7.70;72.18
6150;BME280;3106;42.670;23.318;2024-01-25T08:18:52;94783.53;;;7.43;71.50
6150;BME280;3106;42.670;23.318;2024-01-25T08:21:32;94780.28;;;7.38;71.09
6150;BME280;3106;42.670;23.318;2024-01-25T08:24:01;94841.75;;;7.78;70.47
6150;BME280;3106;42.670;23.318;2024-01-25T08:26:39;94826.44;;;7.75;70.43
6150;BME280;3106;42.670;23.318;2024-01-25T08:29:06;94811.09;;;7.64;69.72
6150;BME280;3106;42.670;23.318;2024-01-25T08:34:37;94840.97;;;7.86;68.83
6150;BME280;3106;42.670;23.318;2024-01-25T08:37:10;94839.25;;;7.90;68.37
6150;BME280;3106;42.670;23.318;2024-01-25T08:40:02;94853.94;;;7.96;68.48
6150;BME280;3106;42.670;23.318;2024-01-25T08:42:42;94853.31;;;7.99;68.41
6150;BME280;3106;42.670;23.318;2024-01-25T08:45:10;94820.31;;;7.83;67.17
6150;BME280;3106;42.670;23.318;2024-01-25T08:47:37;94847.41;;;7.94;68.03
6150;BME280;3106;42.670;23.318;2024-01-25T08:50:10;94838.47;;;7.90;67.66
6150;BME280;3106;42.670;23.318;2024-01-25T08:52:52;94853.03;;;8.01;68.03
6150;BME280;3106;42.670;23.318;2024-01-25T08:55:21;94830.97;;;7.92;67.52
6150;BME280;3106;42.670;23.318;2024-01-25T08:57:53;94863.03;;;8.04;67.63
6150;BME280;3106;42.670;23.318;2024-01-25T09:00:20;94824.19;;;7.94;66.98
6150;BME280;3106;42.670;23.318;2024-01-25T09:02:47;94848.47;;;8.18;66.92
6150;BME280;3106;42.670;23.318;2024-01-25T09:05:15;94827.16;;;8.10;66.24
6150;BME280;3106;42.670;23.318;2024-01-25T09:07:45;94809.31;;;8.02;66.05
6150;BME280;3106;42.670;23.318;2024-01-25T09:10:17;94844.88;;;7.97;67.65
6150;BME280;3106;42.670;23.318;2024-01-25T09:12:47;94858.34;;;8.01;67.68
6150;BME280;3106;42.670;23.318;2024-01-25T09:15:21;94867.09;;;8.10;67.98
6150;BME280;3106;42.670;23.318;2024-01-25T09:18:02;94848.31;;;7.98;67.64
6150;BME280;3106;42.670;23.318;2024-01-25T09:20:32;94850.81;;;8.03;66.76
6150;BME280;3106;42.670;23.318;2024-01-25T09:23:16;94863.53;;;8.23;67.76
6150;BME280;3106;42.670;23.318;2024-01-25T09:25:45;94866.16;;;8.40;66.03
6150;BME280;3106;42.670;23.318;2024-01-25T09:28:14;94834.97;;;8.15;65.87
6150;BME280;3106;42.670;23.318;2024-01-25T09:30:54;94824.66;;;8.05;66.02
6150;BME280;3106;42.670;23.318;2024-01-25T09:33:39;94867.25;;;8.30;65.41
6150;BME280;3106;42.670;23.318;2024-01-25T09:36:13;94835.16;;;8.18;66.02
6150;BME280;3106;42.670;23.318;2024-01-25T09:38:43;94774.13;;;7.88;65.80
6150;BME280;3106;42.670;23.318;2024-01-25T09:41:12;94810.72;;;8.16;66.58
6150;BME280;3106;42.670;23.318;2024-01-25T09:43:40;94836.56;;;8.33;66.03
6150;BME280;3106;42.670;23.318;2024-01-25T09:46:17;94844.66;;;8.45;65.40
6150;BME280;3106;42.670;23.318;2024-01-25T09:48:48;94839.22;;;8.24;66.30
6150;BME280;3106;42.670;23.318;2024-01-25T09:51:16;94791.16;;;8.04;65.64
6150;BME280;3106;42.670;23.318;2024-01-25T09:54:01;94815.44;;;8.19;66.21
6150;BME280;3106;42.670;23.318;2024-01-25T09:56:44;94792.41;;;7.98;66.41
6150;BME280;3106;42.670;23.318;2024-01-25T09:59:14;94831.88;;;8.30;67.10
6150;BME280;3106;42.670;23.318;2024-01-25T10:01:48;94820.56;;;8.33;66.73
6150;BME280;3106;42.670;23.318;2024-01-25T10:04:16;94821.34;;;8.16;67.89
6150;BME280;3106;42.670;23.318;2024-01-25T10:06:47;94818.41;;;8.18;68.71
6150;BME280;3106;42.670;23.318;2024-01-25T10:09:17;94783.16;;;8.04;68.99
6150;BME280;3106;42.670;23.318;2024-01-25T10:11:47;94775.03;;;8.17;68.69
6150;BME280;3106;42.670;23.318;2024-01-25T10:14:14;94799.53;;;8.40;68.14
6150;BME280;3106;42.670;23.318;2024-01-25T10:16:49;94784.47;;;8.44;67.98
6150;BME280;3106;42.670;23.318;2024-01-25T10:19:21;94789.00;;;8.52;66.80
6150;BME280;3106;42.670;23.318;2024-01-25T10:21:48;94790.53;;;8.61;67.73
6150;BME280;3106;42.670;23.318;2024-01-25T10:24:18;94785.19;;;8.61;67.09
6150;BME280;3106;42.670;23.318;2024-01-25T10:26:45;94792.91;;;8.54;66.81
6150;BME280;3106;42.670;23.318;2024-01-25T10:29:16;94764.44;;;8.46;66.81
6150;BME280;3106;42.670;23.318;2024-01-25T10:31:46;94771.91;;;8.53;67.89
6150;BME280;3106;42.670;23.318;2024-01-25T10:34:16;94788.31;;;8.63;67.20
6150;BME280;3106;42.670;23.318;2024-01-25T10:36:46;94782.53;;;8.61;67.24
6150;BME280;3106;42.670;23.318;2024-01-25T10:39:15;94764.59;;;8.41;68.13
6150;BME280;3106;42.670;23.318;2024-01-25T10:41:45;94795.09;;;8.61;66.89
6150;BME280;3106;42.670;23.318;2024-01-25T10:44:17;94753.34;;;8.36;67.41
6150;BME280;3106;42.670;23.318;2024-01-25T10:46:48;94774.06;;;8.59;67.83
6150;BME280;3106;42.670;23.318;2024-01-25T10:49:18;94768.91;;;8.63;68.79
6150;BME280;3106;42.670;23.318;2024-01-25T10:51:45;94773.44;;;8.62;68.45
6150;BME280;3106;42.670;23.318;2024-01-25T10:54:14;94748.88;;;8.57;68.20
6150;BME280;3106;42.670;23.318;2024-01-25T10:56:46;94766.78;;;8.77;67.78
6150;BME280;3106;42.670;23.318;2024-01-25T10:59:15;94752.81;;;8.80;67.00
6150;BME280;3106;42.670;23.318;2024-01-25T11:01:44;94755.34;;;8.76;65.95
6150;BME280;3106;42.670;23.318;2024-01-25T11:04:19;94758.56;;;8.90;65.59
6150;BME280;3106;42.670;23.318;2024-01-25T11:06:48;94757.88;;;9.01;64.22
6150;BME280;3106;42.670;23.318;2024-01-25T11:09:18;94746.53;;;9.04;62.36
6150;BME280;3106;42.670;23.318;2024-01-25T11:11:46;94719.97;;;8.88;62.92
6150;BME280;3106;42.670;23.318;2024-01-25T11:14:19;94742.78;;;9.05;62.13
6150;BME280;3106;42.670;23.318;2024-01-25T11:16:47;94726.19;;;9.00;62.04
6150;BME280;3106;42.670;23.318;2024-01-25T11:19:30;94714.38;;;8.81;63.14
6150;BME280;3106;42.670;23.318;2024-01-25T11:22:02;94694.34;;;8.75;63.78
6150;BME280;3106;42.670;23.318;2024-01-25T11:24:37;94713.09;;;8.87;63.58
6150;BME280;3106;42.670;23.318;2024-01-25T11:27:05;94709.13;;;8.93;63.43
6150;BME280;3106;42.670;23.318;2024-01-25T11:29:33;94718.31;;;8.83;63.11
6150;BME280;3106;42.670;23.318;2024-01-25T11:32:00;94710.66;;;8.73;62.88
6150;BME280;3106;42.670;23.318;2024-01-25T11:34:31;94726.09;;;8.59;64.54
6150;BME280;3106;42.670;23.318;2024-01-25T11:36:58;94712.13;;;8.62;63.10
6150;BME280;3106;42.670;23.318;2024-01-25T11:39:25;94673.69;;;8.43;62.61
6150;BME280;3106;42.670;23.318;2024-01-25T11:41:52;94708.59;;;8.50;63.36
6150;BME280;3106;42.670;23.318;2024-01-25T11:44:22;94707.94;;;8.53;62.83
6150;BME280;3106;42.670;23.318;2024-01-25T11:46:50;94700.59;;;8.50;62.35
6150;BME280;3106;42.670;23.318;2024-01-25T11:49:17;94700.47;;;8.46;62.52
6150;BME280;3106;42.670;23.318;2024-01-25T11:51:46;94667.50;;;8.30;62.15
6150;BME280;3106;42.670;23.318;2024-01-25T11:54:13;94694.97;;;8.51;62.68
6150;BME280;3106;42.670;23.318;2024-01-25T11:56:40;94716.91;;;8.57;62.41
6150;BME280;3106;42.670;23.318;2024-01-25T11:59:09;94699.91;;;8.61;62.99
6150;BME280;3106;42.670;23.318;2024-01-25T12:01:37;94695.97;;;8.67;62.69
6150;BME280;3106;42.670;23.318;2024-01-25T12:04:04;94700.84;;;8.65;61.31
6150;BME280;3106;42.670;23.318;2024-01-25T12:06:32;94688.19;;;8.54;62.20
6150;BME280;3106;42.670;23.318;2024-01-25T12:09:15;94685.00;;;8.40;62.24
6150;BME280;3106;42.670;23.318;2024-01-25T12:11:42;94694.69;;;8.44;62.10
6150;BME280;3106;42.670;23.318;2024-01-25T12:14:10;94704.84;;;8.51;62.39
6150;BME280;3106;42.670;23.318;2024-01-25T12:16:37;94692.59;;;8.50;61.25
6150;BME280;3106;42.670;23.318;2024-01-25T12:19:04;94699.22;;;8.44;61.58
6150;BME280;3106;42.670;23.318;2024-01-25T12:21:33;94678.75;;;8.36;62.74
6150;BME280;3106;42.670;23.318;2024-01-25T12:24:08;94614.69;;;7.95;62.09
6150;BME280;3106;42.670;23.318;2024-01-25T12:26:39;94673.78;;;8.26;62.49
6150;BME280;3106;42.670;23.318;2024-01-25T12:29:07;94672.50;;;8.32;61.67
6150;BME280;3106;42.670;23.318;2024-01-25T12:31:37;94692.59;;;8.50;61.41
6150;BME280;3106;42.670;23.318;2024-01-25T12:34:12;94696.03;;;8.59;60.90
6150;BME280;3106;42.670;23.318;2024-01-25T12:36:40;94691.81;;;8.58;61.13
6150;BME280;3106;42.670;23.318;2024-01-25T12:39:09;94674.25;;;8.57;60.29
6150;BME280;3106;42.670;23.318;2024-01-25T12:41:43;94658.38;;;8.60;60.40
6150;BME280;3106;42.670;23.318;2024-01-25T12:44:12;94636.97;;;8.77;59.85
6150;BME280;3106;42.670;23.318;2024-01-25T12:46:40;94634.16;;;8.74;59.48
6150;BME280;3106;42.670;23.318;2024-01-25T12:49:11;94634.34;;;8.89;59.86
6150;BME280;3106;42.670;23.318;2024-01-25T12:51:43;94635.84;;;8.98;58.24
6150;BME280;3106;42.670;23.318;2024-01-25T12:54:10;94625.81;;;9.16;58.05
6150;BME280;3106;42.670;23.318;2024-01-25T12:56:45;94622.41;;;9.27;56.86
6150;BME280;3106;42.670;23.318;2024-01-25T12:59:13;94639.34;;;9.31;56.58
6150;BME280;3106;42.670;23.318;2024-01-25T13:01:40;94618.53;;;9.37;56.56
6150;BME280;3106;42.670;23.318;2024-01-25T13:04:07;94583.25;;;9.19;56.05
6150;BME280;3106;42.670;23.318;2024-01-25T13:06:35;94620.16;;;9.50;55.79
6150;BME280;3106;42.670;23.318;2024-01-25T13:09:04;94619.88;;;9.43;55.96
6150;BME280;3106;42.670;23.318;2024-01-25T13:11:31;94617.31;;;9.34;56.07
6150;BME280;3106;42.670;23.318;2024-01-25T13:14:00;94609.25;;;9.22;56.18
6150;BME280;3106;42.670;23.318;2024-01-25T13:16:27;94615.00;;;9.12;57.10
6150;BME280;3106;42.670;23.318;2024-01-25T13:18:54;94601.19;;;8.98;57.09
6150;BME280;3106;42.670;23.318;2024-01-25T13:21:22;94618.13;;;9.14;57.55
6150;BME280;3106;42.670;23.318;2024-01-25T13:23:48;94588.25;;;8.89;56.61
6150;BME280;3106;42.670;23.318;2024-01-25T13:26:16;94632.44;;;9.10;56.27
6150;BME280;3106;42.670;23.318;2024-01-25T13:28:43;94630.53;;;8.98;57.72
6150;BME280;3106;42.670;23.318;2024-01-25T13:31:12;94649.56;;;8.89;57.39
6150;BME280;3106;42.670;23.318;2024-01-25T13:33:39;94635.56;;;8.71;58.43
6150;BME280;3106;42.670;23.318;2024-01-25T13:36:07;94599.50;;;8.53;59.33
6150;BME280;3106;42.670;23.318;2024-01-25T13:38:36;94610.75;;;8.59;59.42
6150;BME280;3106;42.670;23.318;2024-01-25T13:41:04;94594.63;;;8.35;59.63
6150;BME280;3106;42.670;23.318;2024-01-25T13:43:32;94598.50;;;8.37;59.71
6150;BME280;3106;42.670;23.318;2024-01-25T13:46:01;94610.97;;;8.25;60.76
6150;BME280;3106;42.670;23.318;2024-01-25T13:48:31;94614.88;;;8.27;60.63